sensor_id;sensor_type;location;lat;lon;timestamp;temperature;humidity
51500;DHT22;39101;53.478;6.158;2022-09-24T00:01:29;13.40;99.90
51500;DHT22;39101;53.478;6.158;2022-09-24T00:04:18;13.40;99.90
51500;DHT22;39101;53.478;6.158;2022-09-24T00:06:46;13.40;99.90
51500;DHT22;39101;53.478;6.158;2022-09-24T00:09:14;13.30;99.90
51500;DHT22;39101;53.478;6.158;2022-09-24T00:11:41;13.40;99.90
51500;DHT22;39101;53.478;6.158;2022-09-24T00:14:10;13.40;99.90
51500;DHT22;39101;53.478;6.158;2022-09-24T00:16:39;13.40;99.90
51500;DHT22;39101;53.478;6.158;2022-09-24T00:19:05;13.40;99.90
51500;DHT22;39101;53.478;6.158;2022-09-24T00:21:36;13.40;99.90
51500;DHT22;39101;53.478;6.158;2022-09-24T00:24:16;13.40;99.90
51500;DHT22;39101;53.478;6.158;2022-09-24T00:27:08;13.40;99.90
51500;DHT22;39101;53.478;6.158;2022-09-24T00:29:34;13.60;99.90
51500;DHT22;39101;53.478;6.158;2022-09-24T00:32:02;13.60;99.90
51500;DHT22;39101;53.478;6.158;2022-09-24T00:34:28;13.70;99.90
51500;DHT22;39101;53.478;6.158;2022-09-24T00:36:54;13.70;99.90
51500;DHT22;39101;53.478;6.158;2022-09-24T00:39:20;13.80;99.90
51500;DHT22;39101;53.478;6.158;2022-09-24T00:41:45;14.00;99.90
51500;DHT22;39101;53.478;6.158;2022-09-24T00:47:29;13.90;99.90
51500;DHT22;39101;53.478;6.158;2022-09-24T00:50:04;13.90;99.90
51500;DHT22;39101;53.478;6.158;2022-09-24T00:52:32;14.00;99.90
51500;DHT22;39101;53.478;6.158;2022-09-24T00:54:58;13.80;99.90
51500;DHT22;39101;53.478;6.158;2022-09-24T00:57:25;13.80;99.90
51500;DHT22;39101;53.478;6.158;2022-09-24T00:59:55;13.80;99.90
51500;DHT22;39101;53.478;6.158;2022-09-24T01:02:21;13.80;99.90
51500;DHT22;39101;53.478;6.158;2022-09-24T01:04:47;13.80;99.90
51500;DHT22;39101;53.478;6.158;2022-09-24T01:07:14;13.80;99.90
51500;DHT22;39101;53.478;6.158;2022-09-24T01:09:40;13.80;99.90
51500;DHT22;39101;53.478;6.158;2022-09-24T01:18:04;13.80;99.90
51500;DHT22;39101;53.478;6.158;2022-09-24T01:28:54;13.80;99.90
51500;DHT22;39101;53.478;6.158;2022-09-24T01:31:29;14.00;99.90
51500;DHT22;39101;53.478;6.158;2022-09-24T01:33:58;13.80;99.90
51500;DHT22;39101;53.478;6.158;2022-09-24T01:36:34;13.80;99.90
51500;DHT22;39101;53.478;6.158;2022-09-24T01:39:02;13.90;99.90
51500;DHT22;39101;53.478;6.158;2022-09-24T01:41:30;13.80;99.90
51500;DHT22;39101;53.478;6.158;2022-09-24T01:43:59;13.80;99.90
51500;DHT22;39101;53.478;6.158;2022-09-24T01:46:27;13.90;99.90
51500;DHT22;39101;53.478;6.158;2022-09-24T01:48:57;13.80;99.90
51500;DHT22;39101;53.478;6.158;2022-09-24T01:51:56;13.80;99.90
51500;DHT22;39101;53.478;6.158;2022-09-24T01:54:34;14.00;99.90
51500;DHT22;39101;53.478;6.158;2022-09-24T01:57:13;13.80;99.90
51500;DHT22;39101;53.478;6.158;2022-09-24T01:59:58;14.00;99.90
51500;DHT22;39101;53.478;6.158;2022-09-24T02:02:34;13.80;99.90
51500;DHT22;39101;53.478;6.158;2022-09-24T02:05:53;13.80;99.90
51500;DHT22;39101;53.478;6.158;2022-09-24T02:09:04;13.90;99.90
51500;DHT22;39101;53.478;6.158;2022-09-24T02:13:28;14.00;99.90
51500;DHT22;39101;53.478;6.158;2022-09-24T02:15:59;13.80;99.90
51500;DHT22;39101;53.478;6.158;2022-09-24T02:18:28;13.90;99.90
51500;DHT22;39101;53.478;6.158;2022-09-24T02:20:58;13.90;99.90
51500;DHT22;39101;53.478;6.158;2022-09-24T02:23:27;13.80;99.90
51500;DHT22;39101;53.478;6.158;2022-09-24T02:25:58;13.80;99.90
51500;DHT22;39101;53.478;6.158;2022-09-24T02:28:27;13.90;99.90
51500;DHT22;39101;53.478;6.158;2022-09-24T02:31:14;13.80;99.90
51500;DHT22;39101;53.478;6.158;2022-09-24T02:33:45;13.90;99.90
51500;DHT22;39101;53.478;6.158;2022-09-24T02:36:31;13.80;99.90
51500;DHT22;39101;53.478;6.158;2022-09-24T02:38:58;13.90;99.90
51500;DHT22;39101;53.478;6.158;2022-09-24T02:41:25;13.90;99.90
51500;DHT22;39101;53.478;6.158;2022-09-24T02:43:51;13.80;99.90
51500;DHT22;39101;53.478;6.158;2022-09-24T02:46:17;13.80;99.90
51500;DHT22;39101;53.478;6.158;2022-09-24T02:48:43;13.90;99.90
51500;DHT22;39101;53.478;6.158;2022-09-24T02:51:09;13.80;99.90
51500;DHT22;39101;53.478;6.158;2022-09-24T02:53:35;13.80;99.90
51500;DHT22;39101;53.478;6.158;2022-09-24T02:56:01;13.80;99.90
51500;DHT22;39101;53.478;6.158;2022-09-24T02:58:29;13.80;99.90
51500;DHT22;39101;53.478;6.158;2022-09-24T03:00:55;13.80;99.90
51500;DHT22;39101;53.478;6.158;2022-09-24T03:03:24;13.90;99.90
51500;DHT22;39101;53.478;6.158;2022-09-24T03:05:51;13.80;99.90
51500;DHT22;39101;53.478;6.158;2022-09-24T03:08:24;13.80;99.90
51500;DHT22;39101;53.478;6.158;2022-09-24T03:10:50;13.90;99.90
51500;DHT22;39101;53.478;6.158;2022-09-24T03:13:19;13.80;99.90
51500;DHT22;39101;53.478;6.158;2022-09-24T03:15:45;13.80;99.90
51500;DHT22;39101;53.478;6.158;2022-09-24T03:18:14;13.80;99.90
51500;DHT22;39101;53.478;6.158;2022-09-24T03:20:40;13.90;99.90
51500;DHT22;39101;53.478;6.158;2022-09-24T03:23:06;13.80;99.90
51500;DHT22;39101;53.478;6.158;2022-09-24T03:25:33;13.90;99.90
51500;DHT22;39101;53.478;6.158;2022-09-24T03:27:59;13.80;99.90
51500;DHT22;39101;53.478;6.158;2022-09-24T03:30:24;13.80;99.90
51500;DHT22;39101;53.478;6.158;2022-09-24T03:33:12;13.90;99.90
51500;DHT22;39101;53.478;6.158;2022-09-24T03:35:38;13.80;99.90
51500;DHT22;39101;53.478;6.158;2022-09-24T03:38:05;13.70;99.90
51500;DHT22;39101;53.478;6.158;2022-09-24T03:40:31;13.80;99.90
51500;DHT22;39101;53.478;6.158;2022-09-24T03:42:57;13.70;99.90
51500;DHT22;39101;53.478;6.158;2022-09-24T03:45:24;13.70;99.90
51500;DHT22;39101;53.478;6.158;2022-09-24T03:47:50;13.70;99.90
51500;DHT22;39101;53.478;6.158;2022-09-24T03:50:16;13.70;99.90
51500;DHT22;39101;53.478;6.158;2022-09-24T03:52:41;13.70;99.90
51500;DHT22;39101;53.478;6.158;2022-09-24T03:55:12;13.70;99.90
51500;DHT22;39101;53.478;6.158;2022-09-24T03:57:38;13.60;99.90
51500;DHT22;39101;53.478;6.158;2022-09-24T04:00:05;13.70;99.90
51500;DHT22;39101;53.478;6.158;2022-09-24T04:02:30;13.70;99.90
51500;DHT22;39101;53.478;6.158;2022-09-24T04:04:56;13.60;99.90
51500;DHT22;39101;53.478;6.158;2022-09-24T04:07:23;13.70;99.90
51500;DHT22;39101;53.478;6.158;2022-09-24T04:09:49;13.70;99.90
51500;DHT22;39101;53.478;6.158;2022-09-24T04:12:15;13.70;99.90
51500;DHT22;39101;53.478;6.158;2022-09-24T04:14:40;13.60;99.90
51500;DHT22;39101;53.478;6.158;2022-09-24T04:17:06;13.70;99.90
51500;DHT22;39101;53.478;6.158;2022-09-24T04:19:32;13.60;99.90
51500;DHT22;39101;53.478;6.158;2022-09-24T04:21:57;13.70;99.90
51500;DHT22;39101;53.478;6.158;2022-09-24T04:24:23;13.70;99.90
51500;DHT22;39101;53.478;6.158;2022-09-24T04:26:49;13.70;99.90
51500;DHT22;39101;53.478;6.158;2022-09-24T04:29:15;13.70;99.90
51500;DHT22;39101;53.478;6.158;2022-09-24T04:31:41;13.70;99.90
51500;DHT22;39101;53.478;6.158;2022-09-24T04:34:08;13.70;99.90
51500;DHT22;39101;53.478;6.158;2022-09-24T04:36:34;13.70;99.90
51500;DHT22;39101;53.478;6.158;2022-09-24T04:39:00;13.70;99.90
51500;DHT22;39101;53.478;6.158;2022-09-24T04:41:27;13.80;99.90
51500;DHT22;39101;53.478;6.158;2022-09-24T04:43:53;13.60;99.90
51500;DHT22;39101;53.478;6.158;2022-09-24T04:46:26;13.70;99.90
51500;DHT22;39101;53.478;6.158;2022-09-24T04:48:53;13.70;99.90
51500;DHT22;39101;53.478;6.158;2022-09-24T04:51:19;13.70;99.90
51500;DHT22;39101;53.478;6.158;2022-09-24T04:53:47;13.60;99.90
51500;DHT22;39101;53.478;6.158;2022-09-24T04:56:15;13.60;99.90
51500;DHT22;39101;53.478;6.158;2022-09-24T04:58:42;13.70;99.90
51500;DHT22;39101;53.478;6.158;2022-09-24T05:01:09;13.70;99.90
51500;DHT22;39101;53.478;6.158;2022-09-24T05:03:35;13.70;99.90
51500;DHT22;39101;53.478;6.158;2022-09-24T05:06:01;13.70;99.90
51500;DHT22;39101;53.478;6.158;2022-09-24T05:08:27;13.70;99.90
51500;DHT22;39101;53.478;6.158;2022-09-24T05:10:52;13.70;99.90
51500;DHT22;39101;53.478;6.158;2022-09-24T05:13:18;13.70;99.90
51500;DHT22;39101;53.478;6.158;2022-09-24T05:15:46;13.70;99.90
51500;DHT22;39101;53.478;6.158;2022-09-24T05:18:11;13.70;99.90
51500;DHT22;39101;53.478;6.158;2022-09-24T05:20:37;13.70;99.90
51500;DHT22;39101;53.478;6.158;2022-09-24T05:23:02;13.70;99.90
51500;DHT22;39101;53.478;6.158;2022-09-24T05:25:29;13.70;99.90
51500;DHT22;39101;53.478;6.158;2022-09-24T05:27:55;13.80;99.90
51500;DHT22;39101;53.478;6.158;2022-09-24T05:30:23;13.80;99.90
51500;DHT22;39101;53.478;6.158;2022-09-24T05:32:49;13.80;99.90
51500;DHT22;39101;53.478;6.158;2022-09-24T05:35:18;13.80;99.90
51500;DHT22;39101;53.478;6.158;2022-09-24T05:37:44;13.80;99.90
51500;DHT22;39101;53.478;6.158;2022-09-24T05:40:10;13.80;99.90
51500;DHT22;39101;53.478;6.158;2022-09-24T05:43:07;13.80;99.90
51500;DHT22;39101;53.478;6.158;2022-09-24T05:45:33;13.80;99.90
51500;DHT22;39101;53.478;6.158;2022-09-24T05:47:59;13.70;99.90
51500;DHT22;39101;53.478;6.158;2022-09-24T05:50:24;13.80;99.90
51500;DHT22;39101;53.478;6.158;2022-09-24T05:52:51;13.80;99.90
51500;DHT22;39101;53.478;6.158;2022-09-24T05:55:17;13.70;99.90
51500;DHT22;39101;53.478;6.158;2022-09-24T05:57:45;13.70;99.90
51500;DHT22;39101;53.478;6.158;2022-09-24T06:00:11;13.80;99.90
51500;DHT22;39101;53.478;6.158;2022-09-24T06:02:38;13.80;99.90
51500;DHT22;39101;53.478;6.158;2022-09-24T06:05:06;13.80;99.90
51500;DHT22;39101;53.478;6.158;2022-09-24T06:07:32;13.80;99.90
51500;DHT22;39101;53.478;6.158;2022-09-24T06:09:58;13.80;99.90
51500;DHT22;39101;53.478;6.158;2022-09-24T06:12:25;13.80;99.90
51500;DHT22;39101;53.478;6.158;2022-09-24T06:14:51;13.70;99.90
51500;DHT22;39101;53.478;6.158;2022-09-24T06:17:19;13.70;99.90
51500;DHT22;39101;53.478;6.158;2022-09-24T06:19:45;13.80;99.90
51500;DHT22;39101;53.478;6.158;2022-09-24T06:22:12;13.80;99.90
51500;DHT22;39101;53.478;6.158;2022-09-24T06:24:38;13.80;99.90
51500;DHT22;39101;53.478;6.158;2022-09-24T06:27:07;13.80;99.90
51500;DHT22;39101;53.478;6.158;2022-09-24T06:29:33;13.80;99.90
51500;DHT22;39101;53.478;6.158;2022-09-24T06:32:00;13.80;99.90
51500;DHT22;39101;53.478;6.158;2022-09-24T06:34:26;13.90;99.90
51500;DHT22;39101;53.478;6.158;2022-09-24T06:36:56;13.90;99.90
51500;DHT22;39101;53.478;6.158;2022-09-24T06:39:22;13.90;99.90
51500;DHT22;39101;53.478;6.158;2022-09-24T06:41:48;13.90;99.90
51500;DHT22;39101;53.478;6.158;2022-09-24T06:44:16;13.90;99.90
51500;DHT22;39101;53.478;6.158;2022-09-24T06:46:43;13.90;99.90
51500;DHT22;39101;53.478;6.158;2022-09-24T06:49:11;13.90;99.90
51500;DHT22;39101;53.478;6.158;2022-09-24T06:51:37;13.90;99.90
51500;DHT22;39101;53.478;6.158;2022-09-24T06:54:04;13.90;99.90
51500;DHT22;39101;53.478;6.158;2022-09-24T06:56:30;13.90;99.90
51500;DHT22;39101;53.478;6.158;2022-09-24T06:58:56;13.90;99.90
51500;DHT22;39101;53.478;6.158;2022-09-24T07:01:21;13.90;99.90
51500;DHT22;39101;53.478;6.158;2022-09-24T07:03:47;13.90;99.90
51500;DHT22;39101;53.478;6.158;2022-09-24T07:06:13;13.90;99.90
51500;DHT22;39101;53.478;6.158;2022-09-24T07:08:40;13.90;99.90
51500;DHT22;39101;53.478;6.158;2022-09-24T07:11:06;13.90;99.90
51500;DHT22;39101;53.478;6.158;2022-09-24T07:13:51;14.00;99.90
51500;DHT22;39101;53.478;6.158;2022-09-24T07:16:18;13.90;99.90
51500;DHT22;39101;53.478;6.158;2022-09-24T07:18:44;13.90;99.90
51500;DHT22;39101;53.478;6.158;2022-09-24T07:21:09;14.00;99.90
51500;DHT22;39101;53.478;6.158;2022-09-24T07:23:35;14.00;99.90
51500;DHT22;39101;53.478;6.158;2022-09-24T07:26:01;14.00;99.90
51500;DHT22;39101;53.478;6.158;2022-09-24T07:28:26;14.00;99.90
51500;DHT22;39101;53.478;6.158;2022-09-24T07:30:57;14.00;99.90
51500;DHT22;39101;53.478;6.158;2022-09-24T07:33:22;14.10;99.90
51500;DHT22;39101;53.478;6.158;2022-09-24T07:35:48;14.10;99.90
51500;DHT22;39101;53.478;6.158;2022-09-24T07:38:15;14.10;99.90
51500;DHT22;39101;53.478;6.158;2022-09-24T07:40:41;14.10;99.90
51500;DHT22;39101;53.478;6.158;2022-09-24T07:43:24;14.10;99.90
51500;DHT22;39101;53.478;6.158;2022-09-24T07:45:52;14.20;99.90
51500;DHT22;39101;53.478;6.158;2022-09-24T07:48:17;14.20;99.90
51500;DHT22;39101;53.478;6.158;2022-09-24T07:50:43;14.20;99.90
51500;DHT22;39101;53.478;6.158;2022-09-24T07:53:11;14.30;99.90
51500;DHT22;39101;53.478;6.158;2022-09-24T07:55:37;14.20;99.90
51500;DHT22;39101;53.478;6.158;2022-09-24T07:58:07;14.30;99.90
51500;DHT22;39101;53.478;6.158;2022-09-24T08:00:33;14.30;99.90
51500;DHT22;39101;53.478;6.158;2022-09-24T08:03:01;14.30;99.90
51500;DHT22;39101;53.478;6.158;2022-09-24T08:05:30;14.30;99.90
51500;DHT22;39101;53.478;6.158;2022-09-24T08:07:57;14.30;99.90
51500;DHT22;39101;53.478;6.158;2022-09-24T08:10:26;14.30;99.90
51500;DHT22;39101;53.478;6.158;2022-09-24T08:12:55;14.40;99.90
51500;DHT22;39101;53.478;6.158;2022-09-24T08:15:25;14.40;99.90
51500;DHT22;39101;53.478;6.158;2022-09-24T08:17:51;14.40;99.90
51500;DHT22;39101;53.478;6.158;2022-09-24T08:20:17;14.40;99.90
51500;DHT22;39101;53.478;6.158;2022-09-24T08:22:43;14.50;99.90
51500;DHT22;39101;53.478;6.158;2022-09-24T08:25:09;14.50;99.90
51500;DHT22;39101;53.478;6.158;2022-09-24T08:27:35;14.50;99.90
51500;DHT22;39101;53.478;6.158;2022-09-24T08:30:03;14.50;99.90
51500;DHT22;39101;53.478;6.158;2022-09-24T08:32:34;14.40;99.90
51500;DHT22;39101;53.478;6.158;2022-09-24T08:35:00;14.40;99.90
51500;DHT22;39101;53.478;6.158;2022-09-24T08:37:30;14.40;99.90
51500;DHT22;39101;53.478;6.158;2022-09-24T08:39:59;14.40;99.90
51500;DHT22;39101;53.478;6.158;2022-09-24T08:45:04;14.40;99.90
51500;DHT22;39101;53.478;6.158;2022-09-24T08:48:04;14.40;99.90
51500;DHT22;39101;53.478;6.158;2022-09-24T08:50:47;14.50;99.90
51500;DHT22;39101;53.478;6.158;2022-09-24T08:53:25;14.40;99.90
51500;DHT22;39101;53.478;6.158;2022-09-24T08:56:02;14.40;99.90
51500;DHT22;39101;53.478;6.158;2022-09-24T08:58:56;14.40;99.90
51500;DHT22;39101;53.478;6.158;2022-09-24T09:01:38;14.40;99.90
51500;DHT22;39101;53.478;6.158;2022-09-24T09:09:44;14.40;99.90
51500;DHT22;39101;53.478;6.158;2022-09-24T09:12:18;14.40;99.90
51500;DHT22;39101;53.478;6.158;2022-09-24T09:14:57;14.40;99.90
51500;DHT22;39101;53.478;6.158;2022-09-24T09:20:14;14.50;99.90
51500;DHT22;39101;53.478;6.158;2022-09-24T09:22:49;14.50;99.90
51500;DHT22;39101;53.478;6.158;2022-09-24T09:25:24;14.60;99.90
51500;DHT22;39101;53.478;6.158;2022-09-24T09:28:03;14.70;99.90
51500;DHT22;39101;53.478;6.158;2022-09-24T09:30:38;14.80;99.90
51500;DHT22;39101;53.478;6.158;2022-09-24T09:33:28;14.80;99.90
51500;DHT22;39101;53.478;6.158;2022-09-24T09:36:27;14.80;99.90
51500;DHT22;39101;53.478;6.158;2022-09-24T09:39:30;14.80;99.90
51500;DHT22;39101;53.478;6.158;2022-09-24T09:44:44;14.70;99.90
51500;DHT22;39101;53.478;6.158;2022-09-24T09:49:50;14.80;99.90
51500;DHT22;39101;53.478;6.158;2022-09-24T09:52:22;14.70;99.90
51500;DHT22;39101;53.478;6.158;2022-09-24T09:54:49;14.80;99.90
51500;DHT22;39101;53.478;6.158;2022-09-24T09:57:23;14.90;99.90
51500;DHT22;39101;53.478;6.158;2022-09-24T10:00:00;15.00;99.90
51500;DHT22;39101;53.478;6.158;2022-09-24T10:02:29;15.10;99.90
51500;DHT22;39101;53.478;6.158;2022-09-24T10:05:00;15.10;99.90
51500;DHT22;39101;53.478;6.158;2022-09-24T10:07:26;15.20;99.90
51500;DHT22;39101;53.478;6.158;2022-09-24T10:10:02;15.30;99.90
51500;DHT22;39101;53.478;6.158;2022-09-24T10:12:37;15.30;99.90
51500;DHT22;39101;53.478;6.158;2022-09-24T10:17:44;15.50;99.90
51500;DHT22;39101;53.478;6.158;2022-09-24T10:20:31;15.50;99.90
51500;DHT22;39101;53.478;6.158;2022-09-24T10:23:06;15.50;99.90
51500;DHT22;39101;53.478;6.158;2022-09-24T10:25:39;15.40;99.90
51500;DHT22;39101;53.478;6.158;2022-09-24T10:28:19;15.40;99.90
51500;DHT22;39101;53.478;6.158;2022-09-24T10:31:06;15.30;99.90
51500;DHT22;39101;53.478;6.158;2022-09-24T10:33:43;15.30;99.90
51500;DHT22;39101;53.478;6.158;2022-09-24T10:36:20;15.20;99.90
51500;DHT22;39101;53.478;6.158;2022-09-24T10:38:48;15.20;99.90
51500;DHT22;39101;53.478;6.158;2022-09-24T10:41:34;15.10;99.90
51500;DHT22;39101;53.478;6.158;2022-09-24T10:44:08;15.10;99.90
51500;DHT22;39101;53.478;6.158;2022-09-24T10:47:15;15.00;99.90
51500;DHT22;39101;53.478;6.158;2022-09-24T10:52:52;15.00;99.90
51500;DHT22;39101;53.478;6.158;2022-09-24T11:12:50;15.20;99.90
51500;DHT22;39101;53.478;6.158;2022-09-24T11:15:25;15.20;99.90
51500;DHT22;39101;53.478;6.158;2022-09-24T11:24:15;15.20;99.90
51500;DHT22;39101;53.478;6.158;2022-09-24T11:32:41;15.20;99.90
51500;DHT22;39101;53.478;6.158;2022-09-24T11:35:26;15.10;99.90
51500;DHT22;39101;53.478;6.158;2022-09-24T11:38:36;15.10;99.90
51500;DHT22;39101;53.478;6.158;2022-09-24T11:41:19;15.00;99.90
51500;DHT22;39101;53.478;6.158;2022-09-24T11:54:52;15.00;99.90
51500;DHT22;39101;53.478;6.158;2022-09-24T11:57:43;15.00;99.90
51500;DHT22;39101;53.478;6.158;2022-09-24T12:00:15;14.90;99.90
51500;DHT22;39101;53.478;6.158;2022-09-24T12:02:43;15.00;99.90
51500;DHT22;39101;53.478;6.158;2022-09-24T12:05:36;15.00;99.90
51500;DHT22;39101;53.478;6.158;2022-09-24T12:08:35;15.00;99.90
51500;DHT22;39101;53.478;6.158;2022-09-24T12:13:54;15.10;99.90
51500;DHT22;39101;53.478;6.158;2022-09-24T12:16:41;15.20;99.90
51500;DHT22;39101;53.478;6.158;2022-09-24T12:21:39;15.30;99.90
51500;DHT22;39101;53.478;6.158;2022-09-24T12:27:35;15.40;99.90
51500;DHT22;39101;53.478;6.158;2022-09-24T12:46:18;15.40;99.90
51500;DHT22;39101;53.478;6.158;2022-09-24T12:48:46;15.40;99.90
51500;DHT22;39101;53.478;6.158;2022-09-24T12:51:14;15.40;99.90
51500;DHT22;39101;53.478;6.158;2022-09-24T12:53:56;15.40;99.90
51500;DHT22;39101;53.478;6.158;2022-09-24T12:56:28;15.40;99.90
51500;DHT22;39101;53.478;6.158;2022-09-24T12:58:55;15.40;99.90
51500;DHT22;39101;53.478;6.158;2022-09-24T13:01:31;15.50;99.90
51500;DHT22;39101;53.478;6.158;2022-09-24T13:06:43;15.40;99.90
51500;DHT22;39101;53.478;6.158;2022-09-24T13:12:18;15.30;99.90
51500;DHT22;39101;53.478;6.158;2022-09-24T13:17:22;15.30;99.90
51500;DHT22;39101;53.478;6.158;2022-09-24T13:19:49;15.30;99.90
51500;DHT22;39101;53.478;6.158;2022-09-24T13:22:28;15.30;99.90
51500;DHT22;39101;53.478;6.158;2022-09-24T13:27:42;15.20;99.90
51500;DHT22;39101;53.478;6.158;2022-09-24T13:32:58;15.20;99.90
51500;DHT22;39101;53.478;6.158;2022-09-24T13:35:38;15.20;99.90
51500;DHT22;39101;53.478;6.158;2022-09-24T13:38:26;15.20;99.90
51500;DHT22;39101;53.478;6.158;2022-09-24T13:43:56;15.40;99.90
51500;DHT22;39101;53.478;6.158;2022-09-24T13:46:24;15.40;99.90
51500;DHT22;39101;53.478;6.158;2022-09-24T13:48:56;15.40;99.90
51500;DHT22;39101;53.478;6.158;2022-09-24T13:51:30;15.40;99.90
51500;DHT22;39101;53.478;6.158;2022-09-24T13:54:15;15.40;99.90
51500;DHT22;39101;53.478;6.158;2022-09-24T13:57:19;15.40;99.90
51500;DHT22;39101;53.478;6.158;2022-09-24T13:59:46;15.40;99.90
51500;DHT22;39101;53.478;6.158;2022-09-24T14:02:25;15.50;99.90
51500;DHT22;39101;53.478;6.158;2022-09-24T14:04:59;15.50;99.90
51500;DHT22;39101;53.478;6.158;2022-09-24T14:07:33;15.40;99.90
51500;DHT22;39101;53.478;6.158;2022-09-24T14:10:05;15.40;99.90
51500;DHT22;39101;53.478;6.158;2022-09-24T14:12:33;15.40;99.90
51500;DHT22;39101;53.478;6.158;2022-09-24T14:14:59;15.40;99.90
51500;DHT22;39101;53.478;6.158;2022-09-24T14:17:27;15.40;99.90
51500;DHT22;39101;53.478;6.158;2022-09-24T14:19:55;15.40;99.90
51500;DHT22;39101;53.478;6.158;2022-09-24T14:22:42;15.40;99.90
51500;DHT22;39101;53.478;6.158;2022-09-24T14:25:15;15.40;99.90
51500;DHT22;39101;53.478;6.158;2022-09-24T14:27:45;15.40;99.90
51500;DHT22;39101;53.478;6.158;2022-09-24T14:30:24;15.30;99.90
51500;DHT22;39101;53.478;6.158;2022-09-24T14:33:13;15.30;99.90
51500;DHT22;39101;53.478;6.158;2022-09-24T14:35:39;15.30;99.90
51500;DHT22;39101;53.478;6.158;2022-09-24T14:38:13;15.30;99.90
51500;DHT22;39101;53.478;6.158;2022-09-24T14:40:49;15.20;99.90
51500;DHT22;39101;53.478;6.158;2022-09-24T14:43:33;15.20;99.90
51500;DHT22;39101;53.478;6.158;2022-09-24T14:48:42;15.30;99.90
51500;DHT22;39101;53.478;6.158;2022-09-24T14:51:28;15.20;99.90
51500;DHT22;39101;53.478;6.158;2022-09-24T14:54:02;15.20;99.90
51500;DHT22;39101;53.478;6.158;2022-09-24T14:56:31;15.20;99.90
51500;DHT22;39101;53.478;6.158;2022-09-24T14:58:58;15.30;99.90
51500;DHT22;39101;53.478;6.158;2022-09-24T15:01:31;15.20;99.90
51500;DHT22;39101;53.478;6.158;2022-09-24T15:04:02;15.20;99.90
51500;DHT22;39101;53.478;6.158;2022-09-24T15:06:34;15.20;99.90
51500;DHT22;39101;53.478;6.158;2022-09-24T15:09:03;15.30;99.90
51500;DHT22;39101;53.478;6.158;2022-09-24T15:11:35;15.20;99.90
51500;DHT22;39101;53.478;6.158;2022-09-24T15:16:45;15.20;99.90
51500;DHT22;39101;53.478;6.158;2022-09-24T15:19:17;15.10;99.90
51500;DHT22;39101;53.478;6.158;2022-09-24T15:21:50;15.20;99.90
51500;DHT22;39101;53.478;6.158;2022-09-24T15:24:18;15.20;99.90
51500;DHT22;39101;53.478;6.158;2022-09-24T15:27:25;15.10;99.90
51500;DHT22;39101;53.478;6.158;2022-09-24T15:29:55;15.10;99.90
51500;DHT22;39101;53.478;6.158;2022-09-24T15:32:26;15.10;99.90
51500;DHT22;39101;53.478;6.158;2022-09-24T15:34:52;15.10;99.90
51500;DHT22;39101;53.478;6.158;2022-09-24T15:37:21;15.20;99.90
51500;DHT22;39101;53.478;6.158;2022-09-24T15:39:48;15.10;99.90
51500;DHT22;39101;53.478;6.158;2022-09-24T15:42:19;15.10;99.90
51500;DHT22;39101;53.478;6.158;2022-09-24T15:44:45;15.10;99.90
51500;DHT22;39101;53.478;6.158;2022-09-24T15:47:12;15.10;99.90
51500;DHT22;39101;53.478;6.158;2022-09-24T15:49:39;15.10;99.90
51500;DHT22;39101;53.478;6.158;2022-09-24T15:52:28;15.10;99.90
51500;DHT22;39101;53.478;6.158;2022-09-24T15:54:58;15.00;99.90
51500;DHT22;39101;53.478;6.158;2022-09-24T15:57:25;15.10;99.90
51500;DHT22;39101;53.478;6.158;2022-09-24T15:59:51;15.10;99.90
51500;DHT22;39101;53.478;6.158;2022-09-24T16:02:36;15.00;99.90
51500;DHT22;39101;53.478;6.158;2022-09-24T16:05:01;14.90;99.90
51500;DHT22;39101;53.478;6.158;2022-09-24T16:07:27;14.90;99.90
51500;DHT22;39101;53.478;6.158;2022-09-24T16:09:52;14.90;99.90
51500;DHT22;39101;53.478;6.158;2022-09-24T16:12:21;14.80;99.90
51500;DHT22;39101;53.478;6.158;2022-09-24T16:14:53;14.80;99.90
51500;DHT22;39101;53.478;6.158;2022-09-24T16:17:23;14.80;99.90
51500;DHT22;39101;53.478;6.158;2022-09-24T16:19:49;14.80;99.90
51500;DHT22;39101;53.478;6.158;2022-09-24T16:22:15;14.70;99.90
51500;DHT22;39101;53.478;6.158;2022-09-24T16:24:42;14.80;99.90
51500;DHT22;39101;53.478;6.158;2022-09-24T16:27:08;14.80;99.90
51500;DHT22;39101;53.478;6.158;2022-09-24T16:29:33;14.80;99.90
51500;DHT22;39101;53.478;6.158;2022-09-24T16:31:59;14.90;99.90
51500;DHT22;39101;53.478;6.158;2022-09-24T16:34:28;15.00;99.90
51500;DHT22;39101;53.478;6.158;2022-09-24T16:36:55;15.10;99.90
51500;DHT22;39101;53.478;6.158;2022-09-24T16:39:22;15.10;99.90
51500;DHT22;39101;53.478;6.158;2022-09-24T16:41:49;15.10;99.90
51500;DHT22;39101;53.478;6.158;2022-09-24T16:44:15;15.00;99.90
51500;DHT22;39101;53.478;6.158;2022-09-24T16:46:45;14.90;99.90
51500;DHT22;39101;53.478;6.158;2022-09-24T16:49:11;14.90;99.90
51500;DHT22;39101;53.478;6.158;2022-09-24T16:51:37;14.80;99.90
51500;DHT22;39101;53.478;6.158;2022-09-24T16:54:03;14.80;99.90
51500;DHT22;39101;53.478;6.158;2022-09-24T16:56:32;14.60;99.90
51500;DHT22;39101;53.478;6.158;2022-09-24T16:58:58;14.60;99.90
51500;DHT22;39101;53.478;6.158;2022-09-24T17:01:23;14.50;99.90
51500;DHT22;39101;53.478;6.158;2022-09-24T17:03:50;14.50;99.90
51500;DHT22;39101;53.478;6.158;2022-09-24T17:06:25;14.40;99.90
51500;DHT22;39101;53.478;6.158;2022-09-24T17:08:51;14.40;99.90
51500;DHT22;39101;53.478;6.158;2022-09-24T17:11:36;14.30;99.90
51500;DHT22;39101;53.478;6.158;2022-09-24T17:14:05;14.30;99.90
51500;DHT22;39101;53.478;6.158;2022-09-24T17:16:32;14.20;99.90
51500;DHT22;39101;53.478;6.158;2022-09-24T17:18:58;14.20;99.90
51500;DHT22;39101;53.478;6.158;2022-09-24T17:21:24;14.10;99.90
51500;DHT22;39101;53.478;6.158;2022-09-24T17:23:50;14.10;99.90
51500;DHT22;39101;53.478;6.158;2022-09-24T17:26:18;14.00;99.90
51500;DHT22;39101;53.478;6.158;2022-09-24T17:28:45;14.00;99.90
51500;DHT22;39101;53.478;6.158;2022-09-24T17:31:14;14.00;99.90
51500;DHT22;39101;53.478;6.158;2022-09-24T17:33:40;14.00;99.90
51500;DHT22;39101;53.478;6.158;2022-09-24T17:36:08;14.00;99.90
51500;DHT22;39101;53.478;6.158;2022-09-24T17:38:35;13.90;99.90
51500;DHT22;39101;53.478;6.158;2022-09-24T17:41:06;13.90;99.90
51500;DHT22;39101;53.478;6.158;2022-09-24T17:43:33;13.90;99.90
51500;DHT22;39101;53.478;6.158;2022-09-24T17:46:01;13.90;99.90
51500;DHT22;39101;53.478;6.158;2022-09-24T17:48:33;13.80;99.90
51500;DHT22;39101;53.478;6.158;2022-09-24T17:51:08;13.80;99.90
51500;DHT22;39101;53.478;6.158;2022-09-24T17:53:36;13.80;99.90
51500;DHT22;39101;53.478;6.158;2022-09-24T17:56:03;13.70;99.90
51500;DHT22;39101;53.478;6.158;2022-09-24T17:58:29;13.70;99.90
51500;DHT22;39101;53.478;6.158;2022-09-24T18:01:21;13.70;99.90
51500;DHT22;39101;53.478;6.158;2022-09-24T18:03:52;13.70;99.90